sensor_id;sensor_type;location;lat;lon;timestamp;P1;durP1;ratioP1;P2;durP2;ratioP2
16015;SDS011;8112;53.592;10.184;2023-04-24T00:00:42;6.13;;;4.53;;
16015;SDS011;8112;53.592;10.184;2023-04-24T00:05:45;6.63;;;5.33;;
16015;SDS011;8112;53.592;10.184;2023-04-24T00:10:48;5.60;;;5.10;;
16015;SDS011;8112;53.592;10.184;2023-04-24T00:15:50;5.47;;;4.73;;
16015;SDS011;8112;53.592;10.184;2023-04-24T00:20:51;5.50;;;4.50;;
16015;SDS011;8112;53.592;10.184;2023-04-24T00:25:55;5.20;;;4.63;;
16015;SDS011;8112;53.592;10.184;2023-04-24T00:30:56;4.70;;;4.13;;
16015;SDS011;8112;53.592;10.184;2023-04-24T00:35:58;5.13;;;4.63;;
16015;SDS011;8112;53.592;10.184;2023-04-24T00:41:01;5.40;;;4.90;;
16015;SDS011;8112;53.592;10.184;2023-04-24T00:46:03;5.13;;;4.63;;
16015;SDS011;8112;53.592;10.184;2023-04-24T00:51:05;5.23;;;4.77;;
16015;SDS011;8112;53.592;10.184;2023-04-24T00:56:08;4.73;;;4.10;;
16015;SDS011;8112;53.592;10.184;2023-04-24T01:01:10;7.93;;;5.40;;
16015;SDS011;8112;53.592;10.184;2023-04-24T01:06:12;6.27;;;4.73;;
16015;SDS011;8112;53.592;10.184;2023-04-24T01:11:16;5.73;;;5.23;;
16015;SDS011;8112;53.592;10.184;2023-04-24T01:16:19;7.77;;;5.43;;
16015;SDS011;8112;53.592;10.184;2023-04-24T01:21:21;6.13;;;5.40;;
16015;SDS011;8112;53.592;10.184;2023-04-24T01:26:30;5.90;;;5.30;;
16015;SDS011;8112;53.592;10.184;2023-04-24T01:31:32;4.90;;;4.40;;
16015;SDS011;8112;53.592;10.184;2023-04-24T01:36:34;5.17;;;4.67;;
16015;SDS011;8112;53.592;10.184;2023-04-24T01:41:38;4.53;;;4.13;;
16015;SDS011;8112;53.592;10.184;2023-04-24T01:46:39;4.77;;;4.37;;
16015;SDS011;8112;53.592;10.184;2023-04-24T01:51:41;5.97;;;3.60;;
16015;SDS011;8112;53.592;10.184;2023-04-24T01:56:44;6.43;;;3.70;;
16015;SDS011;8112;53.592;10.184;2023-04-24T02:01:46;4.27;;;3.27;;
16015;SDS011;8112;53.592;10.184;2023-04-24T02:06:48;4.97;;;4.00;;
16015;SDS011;8112;53.592;10.184;2023-04-24T02:11:52;3.20;;;2.90;;
16015;SDS011;8112;53.592;10.184;2023-04-24T02:16:53;3.83;;;3.43;;
16015;SDS011;8112;53.592;10.184;2023-04-24T02:21:55;3.37;;;3.07;;
16015;SDS011;8112;53.592;10.184;2023-04-24T02:26:58;2.87;;;2.67;;
16015;SDS011;8112;53.592;10.184;2023-04-24T02:32:00;2.90;;;2.70;;
16015;SDS011;8112;53.592;10.184;2023-04-24T02:37:02;4.43;;;3.17;;
16015;SDS011;8112;53.592;10.184;2023-04-24T02:42:05;3.30;;;3.00;;
16015;SDS011;8112;53.592;10.184;2023-04-24T02:47:09;3.33;;;2.80;;
16015;SDS011;8112;53.592;10.184;2023-04-24T02:52:10;3.33;;;2.70;;
16015;SDS011;8112;53.592;10.184;2023-04-24T02:57:14;2.93;;;2.63;;
16015;SDS011;8112;53.592;10.184;2023-04-24T03:02:16;3.87;;;2.57;;
16015;SDS011;8112;53.592;10.184;2023-04-24T03:07:18;3.33;;;2.77;;
16015;SDS011;8112;53.592;10.184;2023-04-24T03:12:22;3.10;;;2.67;;
16015;SDS011;8112;53.592;10.184;2023-04-24T03:17:24;3.33;;;2.30;;
16015;SDS011;8112;53.592;10.184;2023-04-24T03:22:25;2.23;;;1.87;;
16015;SDS011;8112;53.592;10.184;2023-04-24T03:27:29;2.13;;;1.93;;
16015;SDS011;8112;53.592;10.184;2023-04-24T03:32:38;2.30;;;1.80;;
16015;SDS011;8112;53.592;10.184;2023-04-24T03:37:42;1.77;;;1.67;;
16015;SDS011;8112;53.592;10.184;2023-04-24T03:43:05;1.67;;;1.57;;
16015;SDS011;8112;53.592;10.184;2023-04-24T03:48:06;1.83;;;1.63;;
16015;SDS011;8112;53.592;10.184;2023-04-24T03:53:09;2.73;;;1.67;;
16015;SDS011;8112;53.592;10.184;2023-04-24T03:58:15;2.37;;;2.03;;
16015;SDS011;8112;53.592;10.184;2023-04-24T04:03:18;3.40;;;1.87;;
16015;SDS011;8112;53.592;10.184;2023-04-24T04:08:21;1.80;;;1.60;;
16015;SDS011;8112;53.592;10.184;2023-04-24T04:13:24;2.13;;;1.83;;
16015;SDS011;8112;53.592;10.184;2023-04-24T04:18:27;1.60;;;1.50;;
16015;SDS011;8112;53.592;10.184;2023-04-24T04:23:29;1.93;;;1.73;;
16015;SDS011;8112;53.592;10.184;2023-04-24T04:28:50;1.60;;;1.50;;
16015;SDS011;8112;53.592;10.184;2023-04-24T04:33:53;2.37;;;1.73;;
16015;SDS011;8112;53.592;10.184;2023-04-24T04:38:56;2.03;;;1.60;;
16015;SDS011;8112;53.592;10.184;2023-04-24T04:44:20;2.30;;;1.50;;
16015;SDS011;8112;53.592;10.184;2023-04-24T04:49:22;2.23;;;1.93;;
16015;SDS011;8112;53.592;10.184;2023-04-24T04:54:25;1.73;;;1.57;;
16015;SDS011;8112;53.592;10.184;2023-04-24T04:59:29;1.60;;;1.50;;
16015;SDS011;8112;53.592;10.184;2023-04-24T05:04:36;2.17;;;1.50;;
16015;SDS011;8112;53.592;10.184;2023-04-24T05:09:38;1.50;;;1.40;;
16015;SDS011;8112;53.592;10.184;2023-04-24T05:14:42;1.43;;;1.33;;
16015;SDS011;8112;53.592;10.184;2023-04-24T05:19:45;1.60;;;1.50;;
16015;SDS011;8112;53.592;10.184;2023-04-24T05:24:49;1.40;;;1.30;;
16015;SDS011;8112;53.592;10.184;2023-04-24T05:30:11;1.90;;;1.50;;
16015;SDS011;8112;53.592;10.184;2023-04-24T05:35:13;2.80;;;2.00;;
16015;SDS011;8112;53.592;10.184;2023-04-24T05:40:15;1.50;;;1.20;;
16015;SDS011;8112;53.592;10.184;2023-04-24T05:45:18;1.30;;;1.10;;
16015;SDS011;8112;53.592;10.184;2023-04-24T05:50:20;1.40;;;1.30;;
16015;SDS011;8112;53.592;10.184;2023-04-24T05:55:22;1.20;;;1.10;;
16015;SDS011;8112;53.592;10.184;2023-04-24T06:00:26;2.57;;;1.23;;
16015;SDS011;8112;53.592;10.184;2023-04-24T06:05:37;2.57;;;1.30;;
16015;SDS011;8112;53.592;10.184;2023-04-24T06:10:38;1.20;;;1.10;;
16015;SDS011;8112;53.592;10.184;2023-04-24T06:15:44;1.40;;;1.30;;
16015;SDS011;8112;53.592;10.184;2023-04-24T06:20:51;3.20;;;1.40;;
16015;SDS011;8112;53.592;10.184;2023-04-24T06:25:53;1.17;;;1.17;;
16015;SDS011;8112;53.592;10.184;2023-04-24T06:30:56;2.40;;;1.40;;
16015;SDS011;8112;53.592;10.184;2023-04-24T06:35:58;1.27;;;1.17;;
16015;SDS011;8112;53.592;10.184;2023-04-24T06:41:00;1.43;;;1.33;;
16015;SDS011;8112;53.592;10.184;2023-04-24T06:46:03;1.53;;;1.43;;
16015;SDS011;8112;53.592;10.184;2023-04-24T06:51:04;1.40;;;1.30;;
16015;SDS011;8112;53.592;10.184;2023-04-24T06:56:06;1.80;;;1.43;;
16015;SDS011;8112;53.592;10.184;2023-04-24T07:01:09;1.90;;;1.60;;
16015;SDS011;8112;53.592;10.184;2023-04-24T07:06:14;1.77;;;1.50;;
16015;SDS011;8112;53.592;10.184;2023-04-24T07:11:18;2.20;;;1.63;;
16015;SDS011;8112;53.592;10.184;2023-04-24T07:16:21;2.33;;;2.10;;
16015;SDS011;8112;53.592;10.184;2023-04-24T07:21:23;1.87;;;1.67;;
16015;SDS011;8112;53.592;10.184;2023-04-24T07:26:25;1.40;;;1.30;;
16015;SDS011;8112;53.592;10.184;2023-04-24T07:31:28;2.03;;;1.83;;
16015;SDS011;8112;53.592;10.184;2023-04-24T07:36:30;3.00;;;2.03;;
16015;SDS011;8112;53.592;10.184;2023-04-24T07:41:32;2.73;;;1.83;;
16015;SDS011;8112;53.592;10.184;2023-04-24T07:46:35;2.40;;;2.20;;
16015;SDS011;8112;53.592;10.184;2023-04-24T07:51:37;2.17;;;1.97;;
16015;SDS011;8112;53.592;10.184;2023-04-24T07:56:39;3.03;;;2.00;;
16015;SDS011;8112;53.592;10.184;2023-04-24T08:01:44;3.10;;;2.60;;
16015;SDS011;8112;53.592;10.184;2023-04-24T08:06:46;3.20;;;2.40;;
16015;SDS011;8112;53.592;10.184;2023-04-24T08:11:48;2.67;;;2.00;;
16015;SDS011;8112;53.592;10.184;2023-04-24T08:16:51;2.20;;;2.00;;
16015;SDS011;8112;53.592;10.184;2023-04-24T08:21:54;4.37;;;2.80;;
16015;SDS011;8112;53.592;10.184;2023-04-24T08:26:56;4.53;;;3.33;;
16015;SDS011;8112;53.592;10.184;2023-04-24T08:31:59;3.93;;;3.63;;
16015;SDS011;8112;53.592;10.184;2023-04-24T08:37:02;3.40;;;2.93;;
16015;SDS011;8112;53.592;10.184;2023-04-24T08:42:04;3.50;;;3.20;;
16015;SDS011;8112;53.592;10.184;2023-04-24T08:47:09;3.90;;;3.60;;
16015;SDS011;8112;53.592;10.184;2023-04-24T08:52:12;4.20;;;3.90;;
16015;SDS011;8112;53.592;10.184;2023-04-24T08:57:14;5.47;;;4.37;;
16015;SDS011;8112;53.592;10.184;2023-04-24T09:02:18;5.20;;;4.70;;
16015;SDS011;8112;53.592;10.184;2023-04-24T09:07:22;4.90;;;4.40;;
16015;SDS011;8112;53.592;10.184;2023-04-24T09:12:25;4.67;;;4.23;;
16015;SDS011;8112;53.592;10.184;2023-04-24T09:17:28;3.90;;;3.50;;
16015;SDS011;8112;53.592;10.184;2023-04-24T09:22:30;4.43;;;3.60;;
16015;SDS011;8112;53.592;10.184;2023-04-24T09:27:32;3.77;;;3.47;;
16015;SDS011;8112;53.592;10.184;2023-04-24T09:32:35;3.33;;;3.10;;
16015;SDS011;8112;53.592;10.184;2023-04-24T09:37:38;3.47;;;3.27;;
16015;SDS011;8112;53.592;10.184;2023-04-24T09:42:44;4.83;;;4.40;;
16015;SDS011;8112;53.592;10.184;2023-04-24T09:47:52;5.20;;;3.97;;
16015;SDS011;8112;53.592;10.184;2023-04-24T09:52:58;4.97;;;4.47;;
16015;SDS011;8112;53.592;10.184;2023-04-24T09:58:02;4.43;;;3.90;;
16015;SDS011;8112;53.592;10.184;2023-04-24T10:03:06;6.63;;;4.30;;
16015;SDS011;8112;53.592;10.184;2023-04-24T10:08:09;4.20;;;3.90;;
16015;SDS011;8112;53.592;10.184;2023-04-24T10:13:11;4.60;;;4.07;;
16015;SDS011;8112;53.592;10.184;2023-04-24T10:18:15;5.10;;;4.60;;
16015;SDS011;8112;53.592;10.184;2023-04-24T10:23:18;5.80;;;5.17;;
16015;SDS011;8112;53.592;10.184;2023-04-24T10:28:20;5.40;;;4.87;;
16015;SDS011;8112;53.592;10.184;2023-04-24T10:33:24;5.47;;;4.97;;
16015;SDS011;8112;53.592;10.184;2023-04-24T10:38:27;7.80;;;5.50;;
16015;SDS011;8112;53.592;10.184;2023-04-24T10:43:30;7.33;;;4.77;;
16015;SDS011;8112;53.592;10.184;2023-04-24T10:48:36;7.30;;;5.97;;
16015;SDS011;8112;53.592;10.184;2023-04-24T10:53:44;9.07;;;6.03;;
16015;SDS011;8112;53.592;10.184;2023-04-24T10:58:49;8.07;;;7.27;;
16015;SDS011;8112;53.592;10.184;2023-04-24T11:03:55;8.30;;;7.00;;
16015;SDS011;8112;53.592;10.184;2023-04-24T11:09:01;7.70;;;6.90;;
16015;SDS011;8112;53.592;10.184;2023-04-24T11:14:09;8.00;;;7.20;;
16015;SDS011;8112;53.592;10.184;2023-04-24T11:19:20;8.17;;;6.40;;
16015;SDS011;8112;53.592;10.184;2023-04-24T11:24:28;7.90;;;6.83;;
16015;SDS011;8112;53.592;10.184;2023-04-24T11:29:46;7.97;;;7.17;;
16015;SDS011;8112;53.592;10.184;2023-04-24T11:34:52;7.63;;;6.93;;
16015;SDS011;8112;53.592;10.184;2023-04-24T11:39:56;8.53;;;6.13;;
16015;SDS011;8112;53.592;10.184;2023-04-24T11:44:59;7.30;;;6.60;;
16015;SDS011;8112;53.592;10.184;2023-04-24T11:50:07;7.90;;;5.97;;
16015;SDS011;8112;53.592;10.184;2023-04-24T11:55:22;8.03;;;6.73;;
16015;SDS011;8112;53.592;10.184;2023-04-24T12:00:28;7.67;;;6.87;;
16015;SDS011;8112;53.592;10.184;2023-04-24T12:05:32;6.93;;;6.23;;
16015;SDS011;8112;53.592;10.184;2023-04-24T12:10:34;6.60;;;6.00;;
16015;SDS011;8112;53.592;10.184;2023-04-24T12:15:39;5.37;;;4.87;;
16015;SDS011;8112;53.592;10.184;2023-04-24T12:20:42;6.80;;;4.93;;
16015;SDS011;8112;53.592;10.184;2023-04-24T12:25:44;6.90;;;5.43;;
16015;SDS011;8112;53.592;10.184;2023-04-24T12:30:47;5.93;;;4.80;;
16015;SDS011;8112;53.592;10.184;2023-04-24T12:35:52;5.33;;;4.43;;
16015;SDS011;8112;53.592;10.184;2023-04-24T12:41:04;4.10;;;3.70;;
16015;SDS011;8112;53.592;10.184;2023-04-24T12:46:07;4.40;;;3.77;;
16015;SDS011;8112;53.592;10.184;2023-04-24T12:51:11;4.30;;;3.90;;
16015;SDS011;8112;53.592;10.184;2023-04-24T12:56:12;5.20;;;4.67;;
16015;SDS011;8112;53.592;10.184;2023-04-24T13:01:14;5.10;;;4.60;;
16015;SDS011;8112;53.592;10.184;2023-04-24T13:06:17;4.53;;;4.10;;
16015;SDS011;8112;53.592;10.184;2023-04-24T13:11:19;5.60;;;4.50;;
16015;SDS011;8112;53.592;10.184;2023-04-24T13:16:22;5.10;;;4.60;;
16015;SDS011;8112;53.592;10.184;2023-04-24T13:21:25;4.53;;;3.90;;
16015;SDS011;8112;53.592;10.184;2023-04-24T13:26:27;3.90;;;3.60;;
16015;SDS011;8112;53.592;10.184;2023-04-24T13:31:29;4.80;;;4.30;;
16015;SDS011;8112;53.592;10.184;2023-04-24T13:36:32;4.50;;;3.97;;
16015;SDS011;8112;53.592;10.184;2023-04-24T13:41:34;4.50;;;4.07;;
16015;SDS011;8112;53.592;10.184;2023-04-24T13:46:36;4.30;;;3.97;;
16015;SDS011;8112;53.592;10.184;2023-04-24T13:51:39;3.40;;;3.10;;
16015;SDS011;8112;53.592;10.184;2023-04-24T13:56:41;3.60;;;3.30;;
16015;SDS011;8112;53.592;10.184;2023-04-24T14:01:43;3.40;;;3.10;;
16015;SDS011;8112;53.592;10.184;2023-04-24T14:06:47;3.70;;;3.40;;
16015;SDS011;8112;53.592;10.184;2023-04-24T14:11:48;4.37;;;3.97;;
16015;SDS011;8112;53.592;10.184;2023-04-24T14:16:50;3.83;;;3.50;;
16015;SDS011;8112;53.592;10.184;2023-04-24T14:21:53;4.13;;;3.40;;
16015;SDS011;8112;53.592;10.184;2023-04-24T14:26:57;4.17;;;3.40;;
16015;SDS011;8112;53.592;10.184;2023-04-24T14:31:58;3.60;;;3.30;;
16015;SDS011;8112;53.592;10.184;2023-04-24T14:37:02;4.63;;;4.20;;
16015;SDS011;8112;53.592;10.184;2023-04-24T14:42:04;4.10;;;3.70;;
16015;SDS011;8112;53.592;10.184;2023-04-24T14:47:06;3.80;;;3.50;;
16015;SDS011;8112;53.592;10.184;2023-04-24T14:52:09;3.93;;;3.53;;
16015;SDS011;8112;53.592;10.184;2023-04-24T14:57:11;3.87;;;3.53;;
16015;SDS011;8112;53.592;10.184;2023-04-24T15:02:12;3.27;;;2.97;;
16015;SDS011;8112;53.592;10.184;2023-04-24T15:07:15;3.40;;;3.10;;
16015;SDS011;8112;53.592;10.184;2023-04-24T15:12:17;4.80;;;4.40;;
16015;SDS011;8112;53.592;10.184;2023-04-24T15:17:19;5.50;;;4.50;;
16015;SDS011;8112;53.592;10.184;2023-04-24T16:52:28;3.40;;;2.77;;
16015;SDS011;8112;53.592;10.184;2023-04-24T16:57:30;4.27;;;3.33;;
16015;SDS011;8112;53.592;10.184;2023-04-24T17:02:32;3.17;;;2.77;;
16015;SDS011;8112;53.592;10.184;2023-04-24T17:07:35;2.83;;;2.53;;
16015;SDS011;8112;53.592;10.184;2023-04-24T17:12:37;3.20;;;2.90;;
16015;SDS011;8112;53.592;10.184;2023-04-24T17:17:39;3.10;;;2.80;;
16015;SDS011;8112;53.592;10.184;2023-04-24T17:22:44;4.37;;;3.13;;
16015;SDS011;8112;53.592;10.184;2023-04-24T17:27:47;3.10;;;2.80;;
16015;SDS011;8112;53.592;10.184;2023-04-24T17:32:49;4.23;;;3.83;;
16015;SDS011;8112;53.592;10.184;2023-04-24T17:37:53;4.10;;;3.70;;
16015;SDS011;8112;53.592;10.184;2023-04-24T17:42:56;7.43;;;4.53;;
16015;SDS011;8112;53.592;10.184;2023-04-24T17:47:58;5.10;;;4.40;;
16015;SDS011;8112;53.592;10.184;2023-04-24T17:53:03;4.83;;;4.33;;
16015;SDS011;8112;53.592;10.184;2023-04-24T17:58:05;5.93;;;4.77;;
16015;SDS011;8112;53.592;10.184;2023-04-24T18:03:07;5.23;;;4.40;;
16015;SDS011;8112;53.592;10.184;2023-04-24T18:08:12;5.87;;;4.50;;
16015;SDS011;8112;53.592;10.184;2023-04-24T18:13:14;5.80;;;4.50;;
16015;SDS011;8112;53.592;10.184;2023-04-24T18:18:16;8.53;;;5.20;;
16015;SDS011;8112;53.592;10.184;2023-04-24T18:23:20;6.23;;;4.83;;
16015;SDS011;8112;53.592;10.184;2023-04-24T18:28:23;6.83;;;4.83;;
16015;SDS011;8112;53.592;10.184;2023-04-24T18:33:27;8.20;;;5.43;;
16015;SDS011;8112;53.592;10.184;2023-04-24T18:38:31;6.40;;;4.83;;
16015;SDS011;8112;53.592;10.184;2023-04-24T18:43:33;8.90;;;5.63;;
16015;SDS011;8112;53.592;10.184;2023-04-24T18:48:36;5.97;;;4.57;;
16015;SDS011;8112;53.592;10.184;2023-04-24T18:53:40;6.37;;;4.20;;
16015;SDS011;8112;53.592;10.184;2023-04-24T18:58:42;4.20;;;3.47;;
16015;SDS011;8112;53.592;10.184;2023-04-24T19:03:45;4.77;;;2.67;;
16015;SDS011;8112;53.592;10.184;2023-04-24T19:08:49;2.73;;;2.40;;
16015;SDS011;8112;53.592;10.184;2023-04-24T19:13:51;4.20;;;2.20;;
16015;SDS011;8112;53.592;10.184;2023-04-24T19:18:53;3.93;;;2.37;;
16015;SDS011;8112;53.592;10.184;2023-04-24T19:23:57;3.73;;;2.47;;
16015;SDS011;8112;53.592;10.184;2023-04-24T19:28:59;3.23;;;2.20;;
16015;SDS011;8112;53.592;10.184;2023-04-24T19:34:01;2.20;;;2.00;;
16015;SDS011;8112;53.592;10.184;2023-04-24T19:39:07;2.63;;;2.30;;
16015;SDS011;8112;53.592;10.184;2023-04-24T19:44:09;3.20;;;2.07;;
16015;SDS011;8112;53.592;10.184;2023-04-24T19:49:11;3.17;;;2.17;;
16015;SDS011;8112;53.592;10.184;2023-04-24T19:54:16;2.50;;;1.93;;
16015;SDS011;8112;53.592;10.184;2023-04-24T19:59:19;3.97;;;2.50;;
16015;SDS011;8112;53.592;10.184;2023-04-24T20:04:21;4.83;;;2.73;;
16015;SDS011;8112;53.592;10.184;2023-04-24T20:09:25;4.50;;;3.07;;
16015;SDS011;8112;53.592;10.184;2023-04-24T20:14:26;6.40;;;3.20;;
16015;SDS011;8112;53.592;10.184;2023-04-24T20:19:29;6.27;;;3.53;;
16015;SDS011;8112;53.592;10.184;2023-04-24T20:24:32;6.03;;;3.30;;
16015;SDS011;8112;53.592;10.184;2023-04-24T20:29:34;5.97;;;3.63;;
16015;SDS011;8112;53.592;10.184;2023-04-24T20:34:36;5.47;;;3.33;;
16015;SDS011;8112;53.592;10.184;2023-04-24T20:39:40;3.63;;;3.30;;
16015;SDS011;8112;53.592;10.184;2023-04-24T20:44:43;6.43;;;3.33;;
16015;SDS011;8112;53.592;10.184;2023-04-24T20:49:46;4.63;;;3.13;;
16015;SDS011;8112;53.592;10.184;2023-04-24T20:54:50;4.03;;;3.20;;
16015;SDS011;8112;53.592;10.184;2023-04-24T20:59:52;4.40;;;3.33;;
16015;SDS011;8112;53.592;10.184;2023-04-24T21:04:53;4.50;;;3.10;;
16015;SDS011;8112;53.592;10.184;2023-04-24T21:09:57;7.73;;;3.33;;
16015;SDS011;8112;53.592;10.184;2023-04-24T21:14:59;8.03;;;3.33;;
16015;SDS011;8112;53.592;10.184;2023-04-24T21:20:03;6.60;;;3.50;;
16015;SDS011;8112;53.592;10.184;2023-04-24T21:25:07;4.40;;;3.03;;
16015;SDS011;8112;53.592;10.184;2023-04-24T21:30:10;3.07;;;2.77;;
16015;SDS011;8112;53.592;10.184;2023-04-24T21:35:12;4.37;;;3.27;;
16015;SDS011;8112;53.592;10.184;2023-04-24T21:40:16;8.33;;;3.20;;
16015;SDS011;8112;53.592;10.184;2023-04-24T21:45:21;4.93;;;3.03;;
16015;SDS011;8112;53.592;10.184;2023-04-24T21:50:22;5.80;;;3.73;;
16015;SDS011;8112;53.592;10.184;2023-04-24T21:55:26;3.50;;;3.17;;
16015;SDS011;8112;53.592;10.184;2023-04-24T22:00:28;3.43;;;2.60;;
16015;SDS011;8112;53.592;10.184;2023-04-24T22:05:31;5.67;;;3.70;;
16015;SDS011;8112;53.592;10.184;2023-04-24T22:10:35;5.67;;;3.40;;
16015;SDS011;8112;53.592;10.184;2023-04-24T22:15:37;5.13;;;3.10;;
16015;SDS011;8112;53.592;10.184;2023-04-24T22:20:38;5.63;;;3.73;;
16015;SDS011;8112;53.592;10.184;2023-04-24T22:25:42;4.37;;;3.57;;
16015;SDS011;8112;53.592;10.184;2023-04-24T22:30:44;5.47;;;4.17;;
16015;SDS011;8112;53.592;10.184;2023-04-24T22:35:46;5.10;;;3.83;;
16015;SDS011;8112;53.592;10.184;2023-04-24T22:40:49;5.97;;;3.93;;
16015;SDS011;8112;53.592;10.184;2023-04-24T22:45:52;7.57;;;4.83;;
16015;SDS011;8112;53.592;10.184;2023-04-24T22:50:54;6.13;;;4.10;;
16015;SDS011;8112;53.592;10.184;2023-04-24T22:55:58;6.53;;;4.13;;
16015;SDS011;8112;53.592;10.184;2023-04-24T23:01:00;5.33;;;4.20;;
16015;SDS011;8112;53.592;10.184;2023-04-24T23:06:03;6.00;;;4.20;;
16015;SDS011;8112;53.592;10.184;2023-04-24T23:11:07;6.97;;;4.37;;
16015;SDS011;8112;53.592;10.184;2023-04-24T23:16:10;7.60;;;4.73;;
16015;SDS011;8112;53.592;10.184;2023-04-24T23:21:12;5.53;;;4.47;;
16015;SDS011;8112;53.592;10.184;2023-04-24T23:26:15;4.77;;;4.27;;
16015;SDS011;8112;53.592;10.184;2023-04-24T23:31:17;7.87;;;4.93;;
16015;SDS011;8112;53.592;10.184;2023-04-24T23:36:20;5.13;;;3.90;;
16015;SDS011;8112;53.592;10.184;2023-04-24T23:41:23;5.43;;;4.00;;
16015;SDS011;8112;53.592;10.184;2023-04-24T23:46:25;4.70;;;4.23;;
16015;SDS011;8112;53.592;10.184;2023-04-24T23:51:28;4.20;;;3.80;;
16015;SDS011;8112;53.592;10.184;2023-04-24T23:56:32;5.50;;;4.00;;
